TimeEST,TemperatureF,Dew PointF,Humidity,Sea Level PressureIn,VisibilityMPH,Wind Direction,Wind SpeedMPH,Gust SpeedMPH,PrecipitationIn,Events,Conditions,WindDirDegrees,DateUTC
12:15 AM,53.8,48.2,81,29.98,10.0,South,3.5,-,N/A,,Overcast,170,2012-12-10 05:15:00
12:35 AM,54.0,47.8,80,29.98,10.0,SSE,5.8,-,N/A,,Overcast,160,2012-12-10 05:35:00
12:55 AM,54.1,47.7,79,29.97,10.0,South,3.5,-,N/A,,Overcast,180,2012-12-10 05:55:00
1:15 AM,54.1,47.7,79,29.95,10.0,SSE,4.6,-,N/A,,Overcast,150,2012-12-10 06:15:00
1:35 AM,54.1,47.5,78,29.95,10.0,SSW,3.5,-,N/A,,Overcast,200,2012-12-10 06:35:00
1:55 AM,54.1,47.5,78,29.94,10.0,Calm,Calm,-,N/A,,Overcast,0,2012-12-10 06:55:00
2:15 AM,53.8,47.8,80,29.93,10.0,Calm,Calm,-,N/A,,Overcast,0,2012-12-10 07:15:00
2:35 AM,53.2,48.0,82,29.92,10.0,South,3.5,-,N/A,,Overcast,170,2012-12-10 07:35:00
2:55 AM,53.6,48.4,82,29.91,10.0,Calm,Calm,-,N/A,,Overcast,0,2012-12-10 07:55:00
3:15 AM,53.6,48.7,84,29.91,10.0,Calm,Calm,-,N/A,,Overcast,0,2012-12-10 08:15:00
3:55 AM,53.8,48.9,84,29.89,10.0,South,4.6,-,N/A,,Overcast,180,2012-12-10 08:55:00
4:15 AM,53.8,48.9,84,29.88,10.0,South,4.6,-,N/A,,Overcast,170,2012-12-10 09:15:00
4:35 AM,54.1,48.7,82,29.88,10.0,South,4.6,-,N/A,,Overcast,170,2012-12-10 09:35:00
4:55 AM,54.3,48.7,81,29.88,10.0,South,4.6,-,N/A,,Overcast,170,2012-12-10 09:55:00
5:15 AM,54.1,48.9,82,29.86,10.0,SE,3.5,-,N/A,,Overcast,130,2012-12-10 10:15:00
5:35 AM,54.1,49.1,83,29.86,10.0,SE,3.5,-,N/A,,Overcast,130,2012-12-10 10:35:00
5:55 AM,54.1,48.9,82,29.84,10.0,South,5.8,-,N/A,,Overcast,170,2012-12-10 10:55:00
6:15 AM,54.1,48.9,82,29.84,10.0,SSE,4.6,-,N/A,,Overcast,160,2012-12-10 11:15:00
6:55 AM,53.8,48.2,81,29.82,10.0,SSE,5.8,-,N/A,,Overcast,160,2012-12-10 11:55:00
7:15 AM,53.8,48.2,81,29.83,10.0,South,6.9,-,N/A,,Overcast,170,2012-12-10 12:15:00
7:55 AM,53.8,48.7,83,29.82,10.0,South,6.9,-,N/A,,Overcast,170,2012-12-10 12:55:00
8:15 AM,53.8,48.7,83,29.82,10.0,South,4.6,-,N/A,,Overcast,170,2012-12-10 13:15:00
8:35 AM,54.5,48.9,81,29.82,10.0,SSE,3.5,-,N/A,,Overcast,160,2012-12-10 13:35:00
8:55 AM,54.9,49.1,81,29.81,10.0,SSE,5.8,-,N/A,,Overcast,160,2012-12-10 13:55:00
9:15 AM,55.2,49.3,80,29.80,10.0,South,8.1,-,N/A,,Overcast,170,2012-12-10 14:15:00
9:35 AM,55.4,49.6,81,29.80,10.0,SSE,4.6,-,N/A,,Overcast,150,2012-12-10 14:35:00
9:55 AM,54.7,49.6,83,29.80,10.0,SSE,5.8,-,N/A,,Overcast,160,2012-12-10 14:55:00
10:15 AM,54.3,50.4,86,29.80,10.0,SSE,6.9,-,N/A,,Overcast,160,2012-12-10 15:15:00
10:35 AM,54.7,50.9,87,29.83,10.0,West,13.8,18.4,N/A,,Drizzle,280,2012-12-10 15:35:00
10:55 AM,54.7,48.4,79,29.82,7.0,WNW,6.9,24.2,N/A,,Overcast,300,2012-12-10 15:55:00
11:15 AM,54.5,45.9,73,29.82,10.0,WNW,9.2,18.4,N/A,,Overcast,290,2012-12-10 16:15:00
11:35 AM,54.3,45.5,72,29.81,10.0,West,8.1,18.4,N/A,,Overcast,270,2012-12-10 16:35:00
11:55 AM,53.1,46.6,79,29.80,7.0,WSW,5.8,10.4,N/A,Rain,Light Rain,250,2012-12-10 16:55:00
12:15 PM,54.0,47.1,78,29.79,10.0,Calm,Calm,-,N/A,,Overcast,0,2012-12-10 17:15:00
12:35 PM,55.2,47.3,75,29.77,10.0,Calm,Calm,-,N/A,,Overcast,0,2012-12-10 17:35:00
12:55 PM,57.6,45.9,65,29.74,10.0,West,9.2,-,N/A,,Overcast,260,2012-12-10 17:55:00
1:15 PM,58.6,45.9,63,29.71,10.0,West,4.6,-,N/A,,Overcast,260,2012-12-10 18:15:00
1:35 PM,57.4,47.8,70,29.72,10.0,SE,3.5,-,N/A,,Overcast,140,2012-12-10 18:35:00
1:55 PM,57.7,47.7,69,29.72,10.0,Calm,Calm,-,N/A,,Overcast,0,2012-12-10 18:55:00
2:15 PM,57.6,46.6,67,29.73,10.0,WSW,9.2,-,N/A,Rain,Light Rain,240,2012-12-10 19:15:00
2:35 PM,56.3,47.1,71,29.73,10.0,SW,12.7,17.3,N/A,,Overcast,230,2012-12-10 19:35:00
2:55 PM,54.5,48.7,81,29.73,10.0,South,5.8,-,N/A,Rain,Light Rain,180,2012-12-10 19:55:00
3:15 PM,54.0,50.0,86,29.73,10.0,Calm,Calm,-,N/A,,Light Drizzle,0,2012-12-10 20:15:00
3:35 PM,53.6,50.5,89,29.73,10.0,Calm,Calm,-,N/A,Rain,Rain,0,2012-12-10 20:35:00
3:55 PM,53.4,50.5,90,29.72,10.0,SE,3.5,-,N/A,,Light Drizzle,130,2012-12-10 20:55:00
4:15 PM,53.2,50.5,91,29.72,10.0,SSE,4.6,-,N/A,,Drizzle,160,2012-12-10 21:15:00
4:35 PM,52.7,50.7,93,29.72,7.0,SSE,3.5,-,N/A,Rain,Light Rain,160,2012-12-10 21:35:00
4:55 PM,52.3,50.4,93,29.72,5.0,SSE,3.5,-,N/A,Rain,Light Rain,160,2012-12-10 21:55:00
5:15 PM,52.2,50.4,94,29.73,5.0,Calm,Calm,-,N/A,Rain,Rain,0,2012-12-10 22:15:00
5:55 PM,51.4,49.6,94,29.70,7.0,South,3.5,-,N/A,,Overcast,170,2012-12-10 22:55:00
6:15 PM,51.4,49.6,94,29.72,10.0,SSE,4.6,-,N/A,,Overcast,160,2012-12-10 23:15:00
6:35 PM,51.8,50.0,94,29.70,10.0,SSE,3.5,-,N/A,,Overcast,150,2012-12-10 23:35:00
6:55 PM,51.8,49.6,92,29.70,10.0,South,4.6,-,N/A,,Mostly Cloudy,170,2012-12-10 23:55:00
7:15 PM,51.4,49.1,92,29.71,10.0,South,3.5,-,N/A,,Scattered Clouds,170,2012-12-11 00:15:00
7:35 PM,51.8,49.5,92,29.70,10.0,SSE,4.6,-,N/A,,Scattered Clouds,160,2012-12-11 00:35:00
7:55 PM,51.3,49.1,92,29.70,10.0,South,3.5,-,N/A,,Scattered Clouds,170,2012-12-11 00:55:00
8:15 PM,51.3,49.1,92,29.70,10.0,South,4.6,-,N/A,,Scattered Clouds,170,2012-12-11 01:15:00
8:35 PM,50.9,48.7,92,29.70,10.0,SSE,3.5,-,N/A,,Scattered Clouds,160,2012-12-11 01:35:00
8:55 PM,51.4,49.1,92,29.70,10.0,SSE,4.6,-,N/A,,Clear,160,2012-12-11 01:55:00
9:15 PM,51.3,49.1,92,29.70,10.0,SSE,3.5,-,N/A,,Clear,160,2012-12-11 02:15:00
10:15 PM,53.1,47.7,82,29.70,10.0,Calm,Calm,-,N/A,,Mostly Cloudy,0,2012-12-11 03:15:00
10:35 PM,54.5,46.9,76,29.70,10.0,West,3.5,-,N/A,Rain,Light Rain,270,2012-12-11 03:35:00
10:55 PM,54.5,46.9,76,29.72,10.0,NW,4.6,-,N/A,,Overcast,320,2012-12-11 03:55:00
11:15 PM,49.1,45.3,87,29.74,10.0,WNW,11.5,16.1,N/A,Rain,Light Rain,300,2012-12-11 04:15:00
11:35 PM,48.7,44.2,84,29.75,10.0,West,12.7,19.6,N/A,,Overcast,280,2012-12-11 04:35:00
11:55 PM,47.1,41.5,81,29.76,10.0,West,16.1,32.2,N/A,,Overcast,280,2012-12-11 04:55:00